Terminal Aerodrome Forecast
Issued by NWS

Home | Current Version | Previous Version | Text Only | Print | Product List | Glossary On
Versions: 1 2 3 4 5 6 7 8 9 10 11 12 13 14 15
933
FTUS43 KJKL 030340 AAA
TAFSME
TAF AMD
KSME 030340Z 0304/0324 16010G15KT P6SM VCSH BKN080
     FM030500 17017G32KT 1SM +SHRA OVC030
     FM031000 21013G26KT 1SM SHRA OVC006
     FM031200 23012KT 3SM -SHRA OVC015
     FM031500 24011G19KT P6SM BKN040=

USA.gov is the U.S. government's official web portal to all federal, state and local government web resources and services.